Stillwater, Oklahoma
Current Conditions -  °F | °C
As of 1:53 PM on Friday 28 Nov 2014 (Local Time) from KSWO Reporting Station
Clear Clear  
Wind Chill: 67°   Ceiling: Unl
Heat Index: 67°   Visibility: 10mi
Dew Point: 35°   Wind: 17mph
Humidity: 31%   Direction: 200°SSW
Pressure: 29.9"   Gusts: 24mph
Location:  36.12°N, 97.06°W
Report Text: KSWO 281953Z 20015G21KT 10SM CLR 19/02 A2990 RMK AO2 SLP120 T01940017
Loading
Personal Weather Stations






























Interactive Weather Map New forecast layout! Learn more

10-Day Weather Forecast

Advertisements
Track Severe Weather on mobile